Main page
METAR-TAF:

METAR-TAF

Airports :

Inverness Airport

Inverness, Scotland

latitude: 57-32N, longitude: 004-03W, elevation: 9 m

Current weather observation

The report was made 24 minutes ago, at 19:20 UTC
Wind 13 kt from the South/Southwest
Temperature 13°C
Humidity 77%
Pressure 1010 hPa
Visibility 10 km or more
Few clouds at a height of 2400 ft

METAR: EGPE 211920Z 21013KT 9999 FEW024 13/09 Q1010

Time: 20:44 (19:44 UTC)

Forecast

The report was made 2 hours and 44 minutes ago, at 17:00 UTC
Forecast valid from 21 at 18 UTC to 22 at 03 UTC
Wind 15 kt from the Southwest
Visibility 10 km or more
Few clouds at a height of 3000 ft
Probability 40% :
Temporary
from 21 at 18 UTC to 22 at 03 UTC
Broken clouds at a height of 1400 ft

TAF: EGPE 211700Z 2118/2203 22015KT 9999 FEW030 PROB40 TEMPO 2118/2203 BKN014

Weather observations and forecasts of more than 4000 airports (METAR and TAF reports).

The available stations are represented by yellow and red dots on the map.

Hover mouse over dot to see the name of the station.

Then click to see weather observations and forecasts.

To change the map : click on the green buttons with a black cross to zoom in, on the green button with a dash to zoom out, or on the green arrows for adjacent maps.


METAR-TAF: